createdAt,value
2023-01-21T00:01:28.206Z,7.83
2023-01-21T00:03:54.877Z,7.77
2023-01-21T00:06:21.453Z,6.63
2023-01-21T00:08:47.967Z,7.23
2023-01-21T00:11:15.367Z,4.93
2023-01-21T00:13:42.537Z,6.07
2023-01-21T00:16:09.710Z,6.03
2023-01-21T00:18:36.779Z,7.17
2023-01-21T00:21:03.436Z,8.53
2023-01-21T00:23:29.958Z,7.97
2023-01-21T00:25:57.604Z,5.93
2023-01-21T00:28:24.030Z,7.80
2023-01-21T00:30:52.448Z,7.23
2023-01-21T00:33:19.042Z,7.33
2023-01-21T00:35:45.561Z,5.70
2023-01-21T00:38:12.066Z,4.90
2023-01-21T00:40:38.500Z,6.07
2023-01-21T00:43:04.917Z,9.47
2023-01-21T00:45:31.364Z,6.63
2023-01-21T00:47:57.807Z,6.27
2023-01-21T00:50:24.309Z,5.13
2023-01-21T00:52:50.783Z,5.77
2023-01-21T00:55:17.246Z,4.90
2023-01-21T00:57:45.048Z,3.77
2023-01-21T01:00:13.073Z,5.00
2023-01-21T01:02:39.581Z,5.47
2023-01-21T01:05:08.280Z,7.83
2023-01-21T01:07:35.179Z,3.27
2023-01-21T01:10:01.616Z,3.70
2023-01-21T01:12:28.783Z,3.53
2023-01-21T01:14:55.173Z,4.33
2023-01-21T01:17:21.595Z,5.00
2023-01-21T01:19:48.083Z,4.17
2023-01-21T01:22:14.499Z,4.30
2023-01-21T01:24:40.959Z,4.40
2023-01-21T01:27:07.365Z,4.50
2023-01-21T01:29:33.799Z,8.63
2023-01-21T01:32:00.204Z,3.80
2023-01-21T01:34:26.645Z,5.73
2023-01-21T01:36:53.147Z,3.60
2023-01-21T01:39:19.605Z,4.57
2023-01-21T01:41:46.128Z,3.90
2023-01-21T01:44:31.018Z,5.43
2023-01-21T01:46:58.474Z,4.13
2023-01-21T01:49:24.975Z,4.50
2023-01-21T01:51:54.704Z,5.13
2023-01-21T01:54:25.532Z,4.03
2023-01-21T01:59:18.855Z,4.40
2023-01-21T02:01:45.343Z,5.43
2023-01-21T02:04:14.395Z,3.23
2023-01-21T02:06:40.883Z,5.37
2023-01-21T02:09:07.324Z,4.63
2023-01-21T02:11:35.138Z,4.27
2023-01-21T02:14:01.564Z,3.83
2023-01-21T02:16:31.184Z,4.43
2023-01-21T02:18:57.606Z,4.13
2023-01-21T02:21:39.064Z,3.27
2023-01-21T02:24:23.622Z,3.40
2023-01-21T02:26:58.917Z,4.43
2023-01-21T02:29:31.271Z,3.67
2023-01-21T02:31:57.765Z,3.87
2023-01-21T02:34:26.980Z,4.83
2023-01-21T02:37:06.399Z,3.80
2023-01-21T02:39:32.785Z,3.53
2023-01-21T02:42:05.391Z,3.97
2023-01-21T02:44:32.468Z,4.07
2023-01-21T02:47:09.466Z,4.33
2023-01-21T02:49:42.258Z,4.80
2023-01-21T02:52:08.682Z,3.23
2023-01-21T02:54:41.303Z,1.60
2023-01-21T02:57:14.206Z,4.23
2023-01-21T02:59:42.909Z,4.13
2023-01-21T03:02:27.786Z,4.03
2023-01-21T03:05:00.299Z,3.70
2023-01-21T03:07:38.590Z,3.60
2023-01-21T03:10:18.053Z,4.53
2023-01-21T03:13:03.279Z,3.00
2023-01-21T03:15:53.438Z,3.40
2023-01-21T03:18:27.148Z,2.20
2023-01-21T03:20:56.266Z,2.70
2023-01-21T03:23:26.831Z,4.03
2023-01-21T03:25:53.480Z,4.43
2023-01-21T03:28:22.671Z,2.93
2023-01-21T03:30:55.425Z,3.33
2023-01-21T03:33:22.883Z,2.83
2023-01-21T03:35:52.022Z,3.67
2023-01-21T03:38:22.807Z,5.03
2023-01-21T03:41:01.642Z,3.33
2023-01-21T03:43:28.265Z,3.80
2023-01-21T03:46:00.624Z,4.03
2023-01-21T03:48:36.892Z,4.60
2023-01-21T03:51:06.943Z,2.73
2023-01-21T03:53:33.687Z,3.03
2023-01-21T03:56:00.187Z,2.93
2023-01-21T03:58:27.318Z,4.50
2023-01-21T04:00:53.777Z,4.10
2023-01-21T04:03:20.253Z,2.40
2023-01-21T04:05:46.750Z,3.67
2023-01-21T04:08:13.261Z,4.30
2023-01-21T04:10:39.687Z,3.43
2023-01-21T04:13:06.176Z,3.37
2023-01-21T04:15:32.603Z,2.33
2023-01-21T04:17:59.142Z,3.00
2023-01-21T04:20:25.637Z,3.10
2023-01-21T04:22:52.057Z,3.23
2023-01-21T04:25:18.455Z,2.90
2023-01-21T04:27:44.866Z,2.97
2023-01-21T04:30:11.517Z,2.53
2023-01-21T04:32:38.025Z,3.40
2023-01-21T04:35:04.731Z,3.10
2023-01-21T04:37:31.197Z,3.20
2023-01-21T04:39:57.668Z,2.77
2023-01-21T04:42:24.091Z,3.20
2023-01-21T04:44:50.470Z,5.13
2023-01-21T04:47:17.046Z,3.43
2023-01-21T04:49:48.747Z,5.73
2023-01-21T04:52:18.210Z,3.13
2023-01-21T04:54:44.693Z,3.20
2023-01-21T04:57:11.885Z,2.63
2023-01-21T04:59:38.382Z,2.40
2023-01-21T05:02:04.917Z,3.27
2023-01-21T05:04:32.884Z,2.30
2023-01-21T05:06:59.400Z,3.23
2023-01-21T05:09:26.029Z,3.47
2023-01-21T05:11:52.587Z,2.93
2023-01-21T05:14:19.087Z,4.83
2023-01-21T05:16:45.656Z,6.33
2023-01-21T05:19:12.679Z,6.27
2023-01-21T05:21:39.111Z,3.57
2023-01-21T05:24:05.690Z,3.77
2023-01-21T05:26:32.078Z,3.97
2023-01-21T05:28:58.528Z,2.87
2023-01-21T05:31:25.291Z,3.00
2023-01-21T05:33:51.817Z,2.57
2023-01-21T05:36:18.302Z,2.67
2023-01-21T05:38:44.738Z,3.80
2023-01-21T05:41:11.142Z,3.00
2023-01-21T05:43:37.638Z,2.83
2023-01-21T05:46:04.270Z,3.37
2023-01-21T05:48:31.887Z,2.80
2023-01-21T05:50:58.778Z,3.23
2023-01-21T05:53:25.520Z,3.20
2023-01-21T05:55:55.424Z,3.60
2023-01-21T05:58:22.422Z,3.55
2023-01-21T06:00:49.318Z,3.70
2023-01-21T06:03:16.205Z,3.47
2023-01-21T06:05:42.913Z,3.13
2023-01-21T06:08:09.807Z,3.07
2023-01-21T06:10:36.267Z,5.70
2023-01-21T06:13:03.056Z,3.53
2023-01-21T06:15:29.621Z,4.77
2023-01-21T06:17:56.216Z,5.70
2023-01-21T06:20:22.741Z,4.03
2023-01-21T06:22:49.243Z,4.27
2023-01-21T06:25:15.712Z,4.87
2023-01-21T06:27:42.240Z,4.20
2023-01-21T06:30:10.611Z,4.00
2023-01-21T06:32:37.338Z,3.87
2023-01-21T06:35:05.122Z,6.17
2023-01-21T06:37:31.530Z,4.63
2023-01-21T06:39:58.275Z,4.60
2023-01-21T06:42:24.922Z,4.40
2023-01-21T06:44:51.334Z,4.73
2023-01-21T06:47:17.803Z,5.83
2023-01-21T06:49:44.240Z,5.13
2023-01-21T06:52:10.683Z,4.40
2023-01-21T06:54:37.169Z,8.00
2023-01-21T06:57:03.640Z,5.77
2023-01-21T06:59:30.100Z,6.07
2023-01-21T07:01:58.994Z,6.93
2023-01-21T07:04:26.553Z,7.17
2023-01-21T07:06:53.345Z,7.90
2023-01-21T07:09:20.118Z,7.77
2023-01-21T07:11:47.060Z,11.47
2023-01-21T07:14:13.630Z,10.37
2023-01-21T07:16:40.020Z,9.90
2023-01-21T07:19:06.486Z,9.27
2023-01-21T07:21:33.048Z,10.10
2023-01-21T07:24:00.543Z,9.13
2023-01-21T07:26:27.089Z,25.97
2023-01-21T07:28:53.533Z,22.57
2023-01-21T07:31:20.133Z,19.40
2023-01-21T07:33:46.710Z,20.10
2023-01-21T07:36:13.335Z,20.50
2023-01-21T07:38:39.740Z,27.37
2023-01-21T07:41:06.178Z,26.83
2023-01-21T07:43:32.666Z,27.13
2023-01-21T07:46:00.249Z,24.10
2023-01-21T07:48:27.029Z,20.83
2023-01-21T07:50:56.547Z,22.07
2023-01-21T07:53:22.988Z,17.37
2023-01-21T07:55:49.396Z,12.70
2023-01-21T07:58:15.858Z,14.57
2023-01-21T08:00:42.227Z,13.77
2023-01-21T08:03:08.686Z,14.20
2023-01-21T08:05:35.166Z,18.17
2023-01-21T08:08:01.614Z,38.23
2023-01-21T08:10:28.216Z,8.70
2023-01-21T08:12:54.639Z,9.37
2023-01-21T08:15:21.028Z,10.67
2023-01-21T08:17:48.791Z,8.60
2023-01-21T08:20:15.402Z,10.93
2023-01-21T08:22:41.826Z,14.53
2023-01-21T08:25:08.576Z,12.03
2023-01-21T08:27:35.033Z,13.47
2023-01-21T08:30:01.408Z,9.93
2023-01-21T08:32:29.563Z,6.73
2023-01-21T08:34:56.185Z,6.93
2023-01-21T08:37:22.698Z,7.57
2023-01-21T08:39:49.167Z,8.53
2023-01-21T08:42:15.602Z,9.53
2023-01-21T08:44:42.041Z,11.23
2023-01-21T08:47:08.516Z,9.97
2023-01-21T08:49:35.036Z,10.30
2023-01-21T08:52:01.886Z,8.80
2023-01-21T08:54:28.354Z,9.23
2023-01-21T08:56:54.760Z,5.73
2023-01-21T08:59:28.502Z,10.13
2023-01-21T09:01:55.336Z,8.83
2023-01-21T09:04:22.191Z,6.33
2023-01-21T09:06:49.121Z,9.03
2023-01-21T09:09:15.640Z,7.63
2023-01-21T09:11:42.560Z,12.63
2023-01-21T09:14:09.055Z,9.40
2023-01-21T09:16:36.445Z,6.13
2023-01-21T09:19:03.012Z,13.07
2023-01-21T09:21:29.594Z,12.23
2023-01-21T09:23:56.131Z,11.73
2023-01-21T09:26:23.293Z,13.17
2023-01-21T09:28:53.998Z,15.27
2023-01-21T09:31:21.806Z,14.93
2023-01-21T09:33:49.817Z,10.53
2023-01-21T09:36:17.440Z,8.03
2023-01-21T09:38:44.719Z,9.87
2023-01-21T09:41:33.661Z,10.77
2023-01-21T09:44:26.625Z,9.40
2023-01-21T09:47:00.635Z,9.40
2023-01-21T09:49:47.351Z,11.07
2023-01-21T09:52:32.562Z,10.90
2023-01-21T09:54:59.315Z,12.70
2023-01-21T09:57:29.006Z,10.87
2023-01-21T10:00:01.392Z,15.00
2023-01-21T10:02:33.036Z,10.40
2023-01-21T10:05:14.870Z,10.03
2023-01-21T10:07:45.843Z,10.30
2023-01-21T10:10:15.291Z,10.05
2023-01-21T10:12:44.521Z,10.93
2023-01-21T10:15:10.928Z,10.93
2023-01-21T10:18:04.086Z,12.27
2023-01-21T10:20:37.452Z,12.33
2023-01-21T10:23:07.534Z,12.10
2023-01-21T10:25:35.891Z,13.53
2023-01-21T10:28:10.922Z,11.80
2023-01-21T10:30:43.394Z,14.80
2023-01-21T10:33:16.273Z,12.53
2023-01-21T10:35:43.090Z,11.80
2023-01-21T10:38:12.043Z,15.57
2023-01-21T10:40:44.255Z,12.07
2023-01-21T10:43:10.908Z,13.33
2023-01-21T10:45:47.866Z,12.37
2023-01-21T10:48:25.107Z,13.57
2023-01-21T10:51:10.513Z,11.77
2023-01-21T10:53:59.096Z,12.67
2023-01-21T10:56:44.271Z,13.23
2023-01-21T10:59:13.391Z,12.43
2023-01-21T11:01:41.105Z,10.30
2023-01-21T11:04:27.983Z,11.43
2023-01-21T11:06:58.440Z,11.77
2023-01-21T11:09:25.673Z,9.80
2023-01-21T11:11:52.333Z,8.80
2023-01-21T11:14:21.168Z,9.67
2023-01-21T11:16:51.714Z,8.50
2023-01-21T11:19:23.652Z,6.78
2023-01-21T11:22:06.768Z,7.97
2023-01-21T11:24:42.562Z,7.70
2023-01-21T11:27:17.542Z,6.83
2023-01-21T11:29:43.968Z,9.33
2023-01-21T11:32:16.491Z,6.03
2023-01-21T11:34:47.439Z,7.80
2023-01-21T11:37:25.083Z,10.60
2023-01-21T11:39:54.615Z,6.77
2023-01-21T11:42:21.380Z,7.80
2023-01-21T11:44:52.778Z,11.03
2023-01-21T11:47:29.534Z,7.17
2023-01-21T11:50:01.795Z,6.50
2023-01-21T11:52:28.439Z,8.70
2023-01-21T11:54:54.923Z,8.03
2023-01-21T11:57:31.564Z,6.77
2023-01-21T12:00:00.282Z,7.10
2023-01-21T12:02:26.776Z,10.10
2023-01-21T12:04:55.397Z,5.97
2023-01-21T12:07:25.318Z,8.43
2023-01-21T12:09:59.562Z,7.30
2023-01-21T12:12:34.205Z,8.30
2023-01-21T12:15:03.956Z,9.40
2023-01-21T12:17:49.281Z,6.80
2023-01-21T12:20:35.773Z,8.00
2023-01-21T12:23:07.741Z,9.27
2023-01-21T12:25:44.329Z,8.47
2023-01-21T12:28:20.401Z,10.93
2023-01-21T12:30:53.990Z,8.27
2023-01-21T12:33:40.870Z,8.07
2023-01-21T12:36:10.428Z,10.27
2023-01-21T12:38:42.219Z,14.23
2023-01-21T12:41:11.532Z,12.53
2023-01-21T12:43:41.953Z,12.37
2023-01-21T12:46:27.568Z,10.27
2023-01-21T12:48:57.514Z,12.10
2023-01-21T12:51:37.594Z,13.63
2023-01-21T12:54:16.325Z,12.53
2023-01-21T12:56:48.059Z,13.17
2023-01-21T12:59:20.796Z,16.00
2023-01-21T13:01:59.379Z,14.03
2023-01-21T13:04:31.994Z,12.90
2023-01-21T13:07:04.249Z,13.43
2023-01-21T13:09:37.705Z,14.67
2023-01-21T13:12:15.859Z,14.03
2023-01-21T13:14:45.613Z,11.27
2023-01-21T13:17:25.163Z,12.63
2023-01-21T13:19:51.673Z,12.30
2023-01-21T13:22:28.754Z,12.47
2023-01-21T13:25:04.855Z,12.90
2023-01-21T13:27:47.650Z,10.87
2023-01-21T13:30:32.794Z,13.80
2023-01-21T13:33:18.159Z,14.33
2023-01-21T13:35:44.622Z,13.23
2023-01-21T13:38:16.913Z,17.50
2023-01-21T13:40:49.142Z,14.47
2023-01-21T13:43:54.731Z,15.97
2023-01-21T13:46:39.815Z,21.03
2023-01-21T13:49:15.282Z,19.17
2023-01-21T13:52:17.006Z,18.63
2023-01-21T13:55:01.366Z,18.63
2023-01-21T13:57:46.591Z,22.20
2023-01-21T14:00:16.035Z,20.33
2023-01-21T14:02:45.244Z,18.50
2023-01-21T14:05:21.278Z,21.23
2023-01-21T14:07:50.684Z,22.27
2023-01-21T14:10:17.426Z,20.13
2023-01-21T14:12:59.025Z,21.47
2023-01-21T14:15:39.408Z,19.30
2023-01-21T14:18:31.839Z,21.25
2023-01-21T14:21:09.300Z,20.53
2023-01-21T14:23:44.146Z,20.40
2023-01-21T14:26:16.623Z,21.90
2023-01-21T14:29:01.610Z,19.30
2023-01-21T14:31:33.377Z,21.93
2023-01-21T14:34:26.231Z,21.03
2023-01-21T14:36:56.993Z,21.23
2023-01-21T14:39:36.051Z,18.13
2023-01-21T14:42:12.857Z,20.20
2023-01-21T14:44:39.408Z,19.60
2023-01-21T14:47:18.241Z,22.37
2023-01-21T14:49:46.046Z,20.23
2023-01-21T14:52:14.066Z,23.13
2023-01-21T14:54:42.990Z,20.80
2023-01-21T14:57:20.222Z,19.90
2023-01-21T14:59:46.938Z,21.30
2023-01-21T15:02:27.472Z,19.67
2023-01-21T15:05:23.163Z,21.30
2023-01-21T15:07:51.343Z,18.20
2023-01-21T15:10:19.953Z,17.97
2023-01-21T15:12:57.155Z,19.17
2023-01-21T15:15:36.369Z,18.73
2023-01-21T15:18:05.630Z,17.67
2023-01-21T15:20:47.212Z,19.17
2023-01-21T15:23:31.722Z,18.40
2023-01-21T15:26:11.258Z,19.03
2023-01-21T15:28:49.361Z,18.57
2023-01-21T15:31:18.969Z,17.97
2023-01-21T15:33:49.723Z,19.37
2023-01-21T15:36:21.414Z,20.88
2023-01-21T15:38:48.441Z,18.63
2023-01-21T15:41:24.116Z,17.80
2023-01-21T15:43:55.718Z,16.03
2023-01-21T15:46:28.265Z,18.03
2023-01-21T15:49:15.092Z,20.93
2023-01-21T15:52:00.145Z,15.63
2023-01-21T15:54:46.876Z,15.60
2023-01-21T15:57:19.302Z,15.23
2023-01-21T15:59:51.741Z,16.73
2023-01-21T16:02:19.022Z,16.90
2023-01-21T16:04:51.427Z,17.93
2023-01-21T16:07:27.077Z,16.53
2023-01-21T16:09:59.426Z,16.97
2023-01-21T16:12:25.849Z,17.80
2023-01-21T16:15:01.204Z,16.60
2023-01-21T16:17:45.829Z,18.00
2023-01-21T16:20:13.228Z,20.87
2023-01-21T16:22:42.027Z,18.70
2023-01-21T16:25:10.828Z,19.53
2023-01-21T16:27:37.313Z,21.57
2023-01-21T16:30:06.979Z,22.23
2023-01-21T16:32:33.874Z,21.23
2023-01-21T16:35:00.717Z,20.63
2023-01-21T16:37:28.409Z,19.37
2023-01-21T16:39:56.399Z,18.87
2023-01-21T16:42:25.624Z,19.63
2023-01-21T16:44:52.442Z,18.60
2023-01-21T16:47:26.291Z,21.83
2023-01-21T16:49:53.683Z,18.10
2023-01-21T16:52:20.951Z,22.37
2023-01-21T16:54:48.724Z,19.13
2023-01-21T16:57:15.146Z,19.50
2023-01-21T16:59:45.926Z,21.63
2023-01-21T17:02:19.933Z,19.13
2023-01-21T17:04:46.787Z,19.87
2023-01-21T17:07:15.413Z,21.37
2023-01-21T17:09:42.347Z,21.30
2023-01-21T17:12:14.856Z,21.27
2023-01-21T17:14:41.272Z,21.77
2023-01-21T17:17:08.396Z,19.03
2023-01-21T17:19:36.580Z,19.90
2023-01-21T17:22:14.614Z,20.83
2023-01-21T17:24:48.960Z,20.37
2023-01-21T17:27:17.832Z,19.80
2023-01-21T17:29:45.433Z,16.43
2023-01-21T17:32:30.460Z,20.37
2023-01-21T17:35:11.274Z,21.47
2023-01-21T17:37:40.654Z,20.48
2023-01-21T17:40:22.828Z,20.57
2023-01-21T17:42:49.346Z,19.20
2023-01-21T17:45:24.310Z,22.13
2023-01-21T17:48:07.997Z,19.73
2023-01-21T17:50:36.152Z,25.60
2023-01-21T17:53:04.928Z,22.77
2023-01-21T17:55:32.969Z,19.37
2023-01-21T17:58:04.465Z,23.50
2023-01-21T18:00:33.856Z,21.17
2023-01-21T18:03:00.305Z,19.27
2023-01-21T18:05:26.897Z,19.63
2023-01-21T18:07:53.355Z,20.27
2023-01-21T18:10:22.749Z,24.37
2023-01-21T18:12:49.336Z,26.30
2023-01-21T18:15:18.367Z,23.50
2023-01-21T18:17:46.553Z,22.10
2023-01-21T18:20:23.996Z,22.57
2023-01-21T18:22:51.145Z,25.20
2023-01-21T18:25:18.081Z,23.03
2023-01-21T18:27:46.834Z,21.30
2023-01-21T18:30:18.250Z,23.37
2023-01-21T18:32:44.787Z,34.77
2023-01-21T18:35:11.635Z,26.70
2023-01-21T18:37:38.113Z,23.73
2023-01-21T18:40:05.764Z,24.33
2023-01-21T18:42:32.857Z,22.27
2023-01-21T18:44:59.325Z,21.57
2023-01-21T18:47:25.786Z,21.77
2023-01-21T18:49:52.205Z,23.63
2023-01-21T18:52:19.759Z,22.57
2023-01-21T18:54:46.269Z,25.93
2023-01-21T18:57:18.112Z,22.93
2023-01-21T18:59:44.590Z,23.87
2023-01-21T19:02:15.645Z,24.50
2023-01-21T19:07:15.507Z,28.23
2023-01-21T19:09:45.986Z,21.53
2023-01-21T19:12:13.358Z,18.70
2023-01-21T19:14:40.140Z,20.93
2023-01-21T19:17:10.685Z,23.03
2023-01-21T19:19:37.133Z,20.05
2023-01-21T19:22:03.621Z,23.10
2023-01-21T19:24:30.653Z,21.47
2023-01-21T19:26:57.179Z,22.63
2023-01-21T19:29:26.736Z,19.53
2023-01-21T19:31:53.279Z,21.20
2023-01-21T19:34:21.824Z,22.77
2023-01-21T19:36:48.350Z,26.13
2023-01-21T19:39:20.617Z,25.23
2023-01-21T19:41:47.679Z,23.43
2023-01-21T19:44:15.039Z,19.90
2023-01-21T19:46:41.661Z,21.20
2023-01-21T19:49:15.370Z,20.70
2023-01-21T19:51:42.115Z,20.87
2023-01-21T19:54:08.692Z,21.77
2023-01-21T19:56:35.327Z,21.20
2023-01-21T19:59:02.617Z,20.17
2023-01-21T20:01:29.355Z,18.80
2023-01-21T20:04:00.574Z,22.07
2023-01-21T20:06:28.879Z,21.83
2023-01-21T20:08:55.289Z,22.47
2023-01-21T20:11:21.980Z,20.87
2023-01-21T20:13:48.842Z,23.90
2023-01-21T20:16:16.830Z,19.17
2023-01-21T20:18:43.649Z,19.97
2023-01-21T20:21:10.148Z,21.63
2023-01-21T20:23:36.611Z,19.77
2023-01-21T20:26:05.224Z,19.60
2023-01-21T20:28:35.702Z,20.63
2023-01-21T20:31:07.163Z,21.38
2023-01-21T20:33:34.473Z,20.80
2023-01-21T20:36:01.358Z,21.70
2023-01-21T20:38:30.217Z,22.80
2023-01-21T20:40:57.043Z,21.77
2023-01-21T20:43:23.577Z,20.33
2023-01-21T20:45:52.132Z,20.80
2023-01-21T20:48:25.308Z,22.00
2023-01-21T20:50:52.020Z,20.90
2023-01-21T20:53:18.671Z,21.07
2023-01-21T20:55:45.914Z,21.47
2023-01-21T20:58:13.730Z,19.90
2023-01-21T21:00:40.689Z,20.17
2023-01-21T21:03:07.197Z,20.23
2023-01-21T21:05:33.814Z,20.73
2023-01-21T21:08:01.209Z,20.10
2023-01-21T21:10:31.956Z,21.07
2023-01-21T21:12:58.862Z,21.08
2023-01-21T21:15:29.267Z,20.80
2023-01-21T21:17:55.815Z,18.48
2023-01-21T21:20:23.962Z,20.77
2023-01-21T21:22:50.515Z,19.30
2023-01-21T21:25:18.311Z,19.03
2023-01-21T21:27:45.459Z,21.00
2023-01-21T21:30:13.087Z,18.40
2023-01-21T21:32:39.552Z,21.03
2023-01-21T21:35:26.732Z,20.00
2023-01-21T21:37:53.739Z,17.97
2023-01-21T21:40:21.133Z,17.97
2023-01-21T21:43:06.591Z,21.00
2023-01-21T21:45:33.562Z,17.20
2023-01-21T21:48:18.781Z,18.43
2023-01-21T21:50:45.369Z,17.70
2023-01-21T21:53:12.084Z,19.53
2023-01-21T21:55:38.609Z,14.93
2023-01-21T21:58:05.743Z,14.97
2023-01-21T22:00:32.152Z,14.77
2023-01-21T22:02:59.896Z,15.17
2023-01-21T22:05:26.452Z,16.97
2023-01-21T22:07:52.851Z,18.20
2023-01-21T22:10:19.744Z,15.93
2023-01-21T22:12:46.311Z,15.07
2023-01-21T22:15:12.776Z,14.87
2023-01-21T22:17:39.215Z,15.13
2023-01-21T22:20:06.028Z,15.17
2023-01-21T22:22:32.390Z,14.83
2023-01-21T22:24:58.901Z,13.70
2023-01-21T22:27:25.410Z,13.03
2023-01-21T22:29:51.842Z,13.90
2023-01-21T22:32:18.385Z,14.53
2023-01-21T22:34:47.908Z,13.13
2023-01-21T22:37:14.407Z,11.87
2023-01-21T22:39:40.903Z,13.50
2023-01-21T22:42:07.386Z,12.30
2023-01-21T22:44:34.208Z,11.67
2023-01-21T22:47:00.669Z,12.33
2023-01-21T22:49:27.117Z,12.47
2023-01-21T22:51:54.983Z,12.50
2023-01-21T22:54:21.430Z,13.97
2023-01-21T22:56:52.794Z,12.07
2023-01-21T22:59:19.665Z,11.47
2023-01-21T23:01:46.293Z,13.67
2023-01-21T23:04:12.821Z,14.87
2023-01-21T23:06:39.205Z,12.47
2023-01-21T23:09:08.147Z,12.97
2023-01-21T23:11:37.858Z,12.70
2023-01-21T23:14:04.294Z,13.10
2023-01-21T23:16:30.790Z,16.53
2023-01-21T23:18:57.841Z,12.90
2023-01-21T23:21:24.349Z,12.13
2023-01-21T23:23:50.922Z,13.97
2023-01-21T23:26:19.136Z,13.00
2023-01-21T23:28:45.665Z,13.53
2023-01-21T23:31:13.136Z,15.07
2023-01-21T23:33:41.383Z,14.20
2023-01-21T23:36:10.985Z,16.00
2023-01-21T23:38:37.374Z,14.80
2023-01-21T23:41:07.560Z,15.73
2023-01-21T23:43:34.189Z,15.87
2023-01-21T23:46:00.665Z,16.83
2023-01-21T23:48:27.147Z,15.63
2023-01-21T23:50:53.786Z,17.80
2023-01-21T23:53:20.266Z,15.70
2023-01-21T23:55:46.679Z,17.27
2023-01-21T23:58:13.169Z,15.13
